createdAt,value
2023-05-06T00:01:21.627Z,99.90
2023-05-06T00:03:48.839Z,99.90
2023-05-06T00:06:15.956Z,99.90
2023-05-06T00:08:42.849Z,99.90
2023-05-06T00:11:09.895Z,99.90
2023-05-06T00:13:38.149Z,99.90
2023-05-06T00:16:05.361Z,99.90
2023-05-06T00:18:32.142Z,99.90
2023-05-06T00:20:59.010Z,99.90
2023-05-06T00:23:25.819Z,99.90
2023-05-06T00:25:54.353Z,99.90
2023-05-06T00:28:21.232Z,99.90
2023-05-06T00:30:49.300Z,99.90
2023-05-06T00:33:16.086Z,99.90
2023-05-06T00:35:42.830Z,99.90
2023-05-06T00:38:11.971Z,99.90
2023-05-06T00:40:39.295Z,99.90
2023-05-06T00:43:08.336Z,99.90
2023-05-06T00:45:36.698Z,99.90
2023-05-06T00:48:04.499Z,99.90
2023-05-06T00:50:33.333Z,99.90
2023-05-06T00:53:00.441Z,99.90
2023-05-06T00:55:27.555Z,99.90
2023-05-06T00:57:54.602Z,99.90
2023-05-06T01:00:21.643Z,99.90
2023-05-06T01:02:48.602Z,99.90
2023-05-06T01:05:22.513Z,99.90
2023-05-06T01:07:55.001Z,99.90
2023-05-06T01:10:28.159Z,99.90
2023-05-06T01:13:22.199Z,99.90
2023-05-06T01:15:54.119Z,99.90
2023-05-06T01:18:22.731Z,99.90
2023-05-06T01:20:51.038Z,99.90
2023-05-06T01:23:19.118Z,99.90
2023-05-06T01:25:46.523Z,99.90
2023-05-06T01:28:13.534Z,99.90
2023-05-06T01:30:52.551Z,99.90
2023-05-06T01:33:33.748Z,99.90
2023-05-06T01:36:16.404Z,99.90
2023-05-06T01:39:02.504Z,99.90
2023-05-06T01:41:30.366Z,99.90
2023-05-06T01:43:57.191Z,99.90
2023-05-06T01:46:24.107Z,99.90
2023-05-06T01:48:54.252Z,99.90
2023-05-06T01:51:22.022Z,99.90
2023-05-06T01:53:48.799Z,99.90
2023-05-06T01:56:17.101Z,99.90
2023-05-06T01:58:44.032Z,99.90
2023-05-06T02:01:11.438Z,99.90
2023-05-06T02:03:41.470Z,99.90
2023-05-06T02:06:08.312Z,99.90
2023-05-06T02:08:36.188Z,99.90
2023-05-06T02:11:03.008Z,99.90
2023-05-06T02:13:29.766Z,99.90
2023-05-06T02:15:56.689Z,99.90
2023-05-06T02:18:23.634Z,99.90
2023-05-06T02:20:52.015Z,99.90
2023-05-06T02:23:19.116Z,99.90
2023-05-06T02:25:46.556Z,99.90
2023-05-06T02:28:13.381Z,99.90
2023-05-06T02:30:40.184Z,99.90
2023-05-06T02:33:07.305Z,99.90
2023-05-06T02:35:34.068Z,99.90
2023-05-06T02:38:01.217Z,99.90
2023-05-06T02:40:27.979Z,99.90
2023-05-06T02:42:54.743Z,99.90
2023-05-06T02:45:21.628Z,99.90
2023-05-06T02:47:48.421Z,99.90
2023-05-06T02:50:17.000Z,99.90
2023-05-06T02:52:43.792Z,99.90
2023-05-06T02:55:10.686Z,99.90
2023-05-06T02:57:37.560Z,99.90
2023-05-06T03:00:06.627Z,99.90
2023-05-06T03:02:34.993Z,99.90
2023-05-06T03:05:04.585Z,99.90
2023-05-06T03:07:31.741Z,99.90
2023-05-06T03:09:58.551Z,99.90
2023-05-06T03:12:25.379Z,99.90
2023-05-06T03:14:52.488Z,99.90
2023-05-06T03:17:21.151Z,99.90
2023-05-06T03:19:50.747Z,99.90
2023-05-06T03:22:17.580Z,99.90
2023-05-06T03:24:45.609Z,99.90
2023-05-06T03:27:12.465Z,99.90
2023-05-06T03:29:39.794Z,99.90
2023-05-06T03:32:06.837Z,99.90
2023-05-06T03:34:36.332Z,99.90
2023-05-06T03:37:04.695Z,99.90
2023-05-06T03:39:31.606Z,99.90
2023-05-06T03:41:58.397Z,99.90
2023-05-06T03:44:25.578Z,99.90
2023-05-06T03:46:52.395Z,99.90
2023-05-06T03:49:20.781Z,99.90
2023-05-06T03:51:48.169Z,99.90
2023-05-06T03:54:19.386Z,99.90
2023-05-06T03:56:46.145Z,99.90
2023-05-06T03:59:14.376Z,99.90
2023-05-06T04:01:42.172Z,99.90
2023-05-06T04:04:09.081Z,99.90
2023-05-06T04:06:37.153Z,99.90
2023-05-06T04:09:06.397Z,99.90
2023-05-06T04:11:33.237Z,99.90
2023-05-06T04:14:00.572Z,99.90
2023-05-06T04:16:27.412Z,99.90
2023-05-06T04:18:55.942Z,99.90
2023-05-06T04:21:22.756Z,99.90
2023-05-06T04:23:50.109Z,99.90
2023-05-06T04:26:16.946Z,99.90
2023-05-06T04:28:44.068Z,99.90
2023-05-06T04:31:11.106Z,99.90
2023-05-06T04:33:38.160Z,99.90
2023-05-06T04:36:05.719Z,99.90
2023-05-06T04:38:33.160Z,99.90
2023-05-06T04:41:00.122Z,99.90
2023-05-06T04:43:30.080Z,99.90
2023-05-06T04:45:57.866Z,99.90
2023-05-06T04:48:25.135Z,99.90
2023-05-06T04:50:52.146Z,99.90
2023-05-06T04:53:19.422Z,99.90
2023-05-06T04:55:46.227Z,99.90
2023-05-06T04:58:14.082Z,99.90
2023-05-06T05:00:40.905Z,99.90
2023-05-06T05:03:08.103Z,99.90
2023-05-06T05:05:39.100Z,99.90
2023-05-06T05:08:07.386Z,99.90
2023-05-06T05:10:38.195Z,99.90
2023-05-06T05:13:08.205Z,99.90
2023-05-06T05:15:35.900Z,99.90
2023-05-06T05:18:02.734Z,99.90
2023-05-06T05:20:30.846Z,99.90
2023-05-06T05:22:57.689Z,99.90
2023-05-06T05:25:25.889Z,99.90
2023-05-06T05:27:54.392Z,99.90
2023-05-06T05:30:22.898Z,99.90
2023-05-06T05:32:49.965Z,99.90
2023-05-06T05:35:16.986Z,99.90
2023-05-06T05:37:45.796Z,99.90
2023-05-06T05:40:13.108Z,99.90
2023-05-06T05:42:43.538Z,99.90
2023-05-06T05:45:12.124Z,99.90
2023-05-06T05:47:39.630Z,99.90
2023-05-06T05:50:08.883Z,99.90
2023-05-06T05:52:36.262Z,99.90
2023-05-06T05:55:04.815Z,99.90
2023-05-06T05:57:31.973Z,99.90
2023-05-06T06:00:03.876Z,99.90
2023-05-06T06:02:31.354Z,99.90
2023-05-06T06:04:58.646Z,99.90
2023-05-06T06:07:26.850Z,99.90
2023-05-06T06:09:54.546Z,99.90
2023-05-06T06:12:21.337Z,99.90
2023-05-06T06:14:49.291Z,99.90
2023-05-06T06:17:18.895Z,99.90
2023-05-06T06:19:52.430Z,99.90
2023-05-06T06:22:21.225Z,99.90
2023-05-06T06:24:52.635Z,99.90
2023-05-06T06:27:19.683Z,99.90
2023-05-06T06:30:13.088Z,99.90
2023-05-06T06:33:04.259Z,99.90
2023-05-06T06:35:31.208Z,99.90
2023-05-06T06:37:59.546Z,99.90
2023-05-06T06:40:26.304Z,99.90
2023-05-06T06:42:53.718Z,99.90
2023-05-06T06:45:22.027Z,99.90
2023-05-06T06:47:50.657Z,99.90
2023-05-06T06:50:27.865Z,99.90
2023-05-06T06:52:55.044Z,99.90
2023-05-06T06:55:27.283Z,99.90
2023-05-06T06:57:56.140Z,99.90
2023-05-06T07:00:24.455Z,99.90
2023-05-06T07:03:00.589Z,99.90
2023-05-06T07:05:39.676Z,99.90
2023-05-06T07:08:07.436Z,99.90
2023-05-06T07:10:37.238Z,99.90
2023-05-06T07:13:06.731Z,99.90
2023-05-06T07:18:33.173Z,99.90
2023-05-06T07:23:54.063Z,99.90
2023-05-06T07:26:36.081Z,99.90
2023-05-06T07:29:06.958Z,99.40
2023-05-06T07:34:18.245Z,96.60
2023-05-06T07:36:45.248Z,95.20
2023-05-06T07:39:15.116Z,92.80
2023-05-06T07:41:43.677Z,91.30
2023-05-06T07:44:10.579Z,86.10
2023-05-06T07:46:37.351Z,79.30
2023-05-06T07:49:06.088Z,72.80
2023-05-06T07:51:33.020Z,68.90
2023-05-06T07:54:00.778Z,68.80
2023-05-06T07:56:28.034Z,68.40
2023-05-06T07:58:54.797Z,64.50
2023-05-06T08:01:21.553Z,62.70
2023-05-06T08:03:49.321Z,62.70
2023-05-06T08:06:16.192Z,61.20
2023-05-06T08:08:43.172Z,60.70
2023-05-06T08:11:10.301Z,59.80
2023-05-06T08:16:16.251Z,59.20
2023-05-06T08:18:43.162Z,59.80
2023-05-06T08:21:10.051Z,61.10
2023-05-06T08:23:37.000Z,62.80
2023-05-06T08:26:03.895Z,64.50
2023-05-06T08:28:31.681Z,66.00
2023-05-06T08:30:58.548Z,67.30
2023-05-06T08:33:25.388Z,68.90
2023-05-06T08:35:52.209Z,70.00
2023-05-06T08:38:19.081Z,70.80
2023-05-06T08:40:46.039Z,71.90
2023-05-06T08:43:16.075Z,71.80
2023-05-06T08:45:44.319Z,72.00
2023-05-06T08:48:11.211Z,72.30
2023-05-06T08:50:41.355Z,72.60
2023-05-06T08:53:10.648Z,73.00
2023-05-06T08:55:37.697Z,73.60
2023-05-06T08:58:05.719Z,74.10
2023-05-06T09:00:33.175Z,74.40
2023-05-06T09:03:00.536Z,74.50
2023-05-06T09:05:28.872Z,74.70
2023-05-06T09:07:56.529Z,75.20
2023-05-06T09:10:23.732Z,75.20
2023-05-06T09:12:52.954Z,75.30
2023-05-06T09:15:25.948Z,75.30
2023-05-06T09:17:54.140Z,75.50
2023-05-06T09:20:22.576Z,74.80
2023-05-06T09:22:49.916Z,73.50
2023-05-06T09:25:16.845Z,70.80
2023-05-06T09:27:45.722Z,68.90
2023-05-06T09:30:13.434Z,65.90
2023-05-06T09:32:40.965Z,65.60
2023-05-06T09:35:11.124Z,65.10
2023-05-06T09:37:38.111Z,65.00
2023-05-06T09:40:06.294Z,64.80
2023-05-06T09:42:34.304Z,64.30
2023-05-06T09:45:02.353Z,64.60
2023-05-06T09:47:33.276Z,65.50
2023-05-06T09:50:01.916Z,66.10
2023-05-06T09:52:29.037Z,66.40
2023-05-06T09:54:59.371Z,66.50
2023-05-06T09:57:26.306Z,66.50
2023-05-06T09:59:54.946Z,66.80
2023-05-06T10:10:25.284Z,67.10
2023-05-06T10:40:10.177Z,64.00
2023-05-06T10:48:03.346Z,60.00
2023-05-06T10:50:30.375Z,60.30
2023-05-06T10:52:57.994Z,60.80
2023-05-06T10:55:33.902Z,61.40
2023-05-06T10:58:11.297Z,61.80
2023-05-06T11:00:38.360Z,62.80
2023-05-06T11:08:09.238Z,61.10
2023-05-06T11:10:36.390Z,60.00
2023-05-06T11:13:30.514Z,60.00
2023-05-06T11:15:58.380Z,60.00
2023-05-06T11:18:25.354Z,59.30
2023-05-06T11:20:58.426Z,58.30
2023-05-06T11:23:52.637Z,58.60
2023-05-06T11:26:19.586Z,58.10
2023-05-06T11:28:47.276Z,58.20
2023-05-06T11:31:14.524Z,57.60
2023-05-06T11:33:49.759Z,58.20
2023-05-06T11:36:17.921Z,58.20
2023-05-06T11:38:46.426Z,58.00
2023-05-06T11:41:14.049Z,56.90
2023-05-06T11:43:51.557Z,56.50
2023-05-06T11:46:22.720Z,56.90
2023-05-06T11:51:26.747Z,56.80
2023-05-06T11:54:10.378Z,56.50
2023-05-06T11:56:53.708Z,55.70
2023-05-06T11:59:39.898Z,55.90
2023-05-06T12:02:12.800Z,55.40
2023-05-06T12:04:44.122Z,55.10
2023-05-06T12:07:15.247Z,55.20
2023-05-06T12:09:43.263Z,55.00
2023-05-06T12:12:10.510Z,54.60
2023-05-06T12:14:38.349Z,54.10
2023-05-06T12:17:05.592Z,53.90
2023-05-06T12:19:32.566Z,54.40
2023-05-06T12:24:49.883Z,54.90
2023-05-06T12:27:35.465Z,55.60
2023-05-06T12:30:04.765Z,56.10
2023-05-06T12:32:32.307Z,56.80
2023-05-06T12:35:00.514Z,57.90
2023-05-06T12:37:28.704Z,58.90
2023-05-06T12:39:59.317Z,60.00
2023-05-06T12:42:26.472Z,60.00
2023-05-06T12:44:53.337Z,61.20
2023-05-06T12:47:25.092Z,61.80
2023-05-06T12:49:58.196Z,61.80
2023-05-06T12:52:30.862Z,62.30
2023-05-06T12:54:57.981Z,62.60
2023-05-06T12:57:24.915Z,62.30
2023-05-06T12:59:52.224Z,62.40
2023-05-06T13:02:19.101Z,62.60
2023-05-06T13:04:47.094Z,62.40
2023-05-06T13:07:13.959Z,62.30
2023-05-06T13:09:41.367Z,61.80
2023-05-06T13:12:08.686Z,61.80
2023-05-06T13:14:38.380Z,61.90
2023-05-06T13:17:07.360Z,61.80
2023-05-06T13:19:34.324Z,61.60
2023-05-06T13:22:01.476Z,60.00
2023-05-06T13:24:28.969Z,59.90
2023-05-06T13:26:57.148Z,60.30
2023-05-06T13:29:24.476Z,61.40
2023-05-06T13:31:53.572Z,61.80
2023-05-06T13:34:20.929Z,62.30
2023-05-06T13:36:50.519Z,62.50
2023-05-06T13:39:17.333Z,63.70
2023-05-06T13:41:46.674Z,64.70
2023-05-06T13:44:14.038Z,65.30
2023-05-06T13:46:40.987Z,65.80
2023-05-06T13:49:07.816Z,66.80
2023-05-06T13:51:34.710Z,66.70
2023-05-06T13:54:02.186Z,67.50
2023-05-06T13:56:29.459Z,68.00
2023-05-06T13:58:56.546Z,68.30
2023-05-06T14:01:24.206Z,67.90
2023-05-06T14:03:51.619Z,68.80
2023-05-06T14:06:19.572Z,68.90
2023-05-06T14:08:47.877Z,69.60
2023-05-06T14:11:15.577Z,69.10
2023-05-06T14:16:20.075Z,71.00
2023-05-06T14:18:47.911Z,71.70
2023-05-06T14:21:33.905Z,72.80
2023-05-06T14:24:02.502Z,74.40
2023-05-06T14:26:30.781Z,74.80
2023-05-06T14:29:04.565Z,76.50
2023-05-06T14:31:35.963Z,76.30
2023-05-06T14:34:06.436Z,76.40
2023-05-06T14:36:37.612Z,76.40
2023-05-06T14:39:06.163Z,76.70
2023-05-06T14:41:34.558Z,77.00
2023-05-06T14:44:01.617Z,76.60
2023-05-06T14:46:29.935Z,76.70
2023-05-06T14:49:00.839Z,76.70
2023-05-06T14:51:28.208Z,76.40
2023-05-06T14:53:55.976Z,76.20
2023-05-06T14:56:31.461Z,75.90
2023-05-06T14:59:00.799Z,75.10
2023-05-06T15:01:34.769Z,74.60
2023-05-06T15:06:58.145Z,73.50
2023-05-06T15:09:29.669Z,73.20
2023-05-06T15:12:01.579Z,73.50
2023-05-06T15:14:29.131Z,73.80
2023-05-06T15:16:57.990Z,74.10
2023-05-06T15:19:32.123Z,74.30
2023-05-06T15:22:01.826Z,74.40
2023-05-06T15:24:37.049Z,74.20
2023-05-06T15:27:05.362Z,74.00
2023-05-06T15:29:36.829Z,73.90
2023-05-06T15:32:04.222Z,73.60
2023-05-06T15:34:31.416Z,73.40
2023-05-06T15:37:01.790Z,73.20
2023-05-06T15:39:35.944Z,73.20
2023-05-06T15:42:06.480Z,72.90
2023-05-06T15:44:37.540Z,72.80
2023-05-06T15:47:12.858Z,72.60
2023-05-06T15:52:12.761Z,73.70
2023-05-06T15:54:50.891Z,73.50
2023-05-06T15:57:25.072Z,73.80
2023-05-06T16:00:00.492Z,73.90
2023-05-06T16:02:31.507Z,73.80
2023-05-06T16:04:59.911Z,73.70
2023-05-06T16:07:28.074Z,73.60
2023-05-06T16:09:55.347Z,72.60
2023-05-06T16:12:22.142Z,72.80
2023-05-06T16:14:50.031Z,71.90
2023-05-06T16:17:17.938Z,71.30
2023-05-06T16:19:44.683Z,71.30
2023-05-06T16:22:14.263Z,71.20
2023-05-06T16:24:42.033Z,71.00
2023-05-06T16:27:09.060Z,71.10
2023-05-06T16:29:35.911Z,71.30
2023-05-06T16:32:02.974Z,70.70
2023-05-06T16:34:48.046Z,70.60
2023-05-06T16:37:29.154Z,70.50
2023-05-06T16:39:59.856Z,70.70
2023-05-06T16:51:02.011Z,73.10
2023-05-06T16:57:24.131Z,73.60
2023-05-06T17:12:36.914Z,74.00
2023-05-06T17:15:06.864Z,74.20
2023-05-06T17:17:33.849Z,74.20
2023-05-06T17:20:06.142Z,75.20
2023-05-06T17:22:34.861Z,76.70
2023-05-06T17:25:01.834Z,77.70
2023-05-06T17:27:29.156Z,79.30
2023-05-06T17:50:20.484Z,87.50
2023-05-06T18:02:21.964Z,92.50
2023-05-06T18:05:03.201Z,93.30
2023-05-06T18:07:30.868Z,95.00
2023-05-06T18:10:04.473Z,96.30
2023-05-06T18:12:33.824Z,97.70
2023-05-06T18:15:04.211Z,99.20
2023-05-06T18:17:37.077Z,99.90
2023-05-06T18:20:07.668Z,99.90
2023-05-06T18:22:35.084Z,99.90
2023-05-06T18:25:06.850Z,99.90
2023-05-06T18:27:34.030Z,99.90
2023-05-06T18:30:01.005Z,99.90
2023-05-06T18:32:28.241Z,99.90
2023-05-06T18:35:00.666Z,99.90
2023-05-06T18:37:30.990Z,99.90
2023-05-06T18:39:57.739Z,99.90
2023-05-06T18:42:25.291Z,99.90
2023-05-06T18:44:52.102Z,99.90
2023-05-06T18:47:22.369Z,99.90
2023-05-06T18:49:52.593Z,99.90
2023-05-06T18:52:19.522Z,99.90
2023-05-06T18:54:48.706Z,99.90
2023-05-06T18:57:17.445Z,99.90
2023-05-06T18:59:46.230Z,99.90
2023-05-06T19:02:14.230Z,99.90
2023-05-06T19:04:41.360Z,99.90
2023-05-06T19:07:16.207Z,99.90
2023-05-06T19:09:46.177Z,99.90
2023-05-06T19:12:13.633Z,99.90
2023-05-06T19:14:43.701Z,99.90
2023-05-06T19:17:17.203Z,99.90
2023-05-06T19:19:47.211Z,99.90
2023-05-06T19:22:14.351Z,99.90
2023-05-06T19:24:44.833Z,99.90
2023-05-06T19:27:12.934Z,99.90
2023-05-06T19:29:45.925Z,99.90
2023-05-06T19:32:12.836Z,99.90
2023-05-06T19:34:44.878Z,99.90
2023-05-06T19:37:18.033Z,99.90
2023-05-06T19:39:56.398Z,99.90
2023-05-06T19:42:24.802Z,99.90
2023-05-06T19:44:51.791Z,99.90
2023-05-06T19:47:21.633Z,99.90
2023-05-06T19:49:49.798Z,99.90
2023-05-06T19:52:18.493Z,99.90
2023-05-06T19:54:46.352Z,99.90
2023-05-06T19:57:16.837Z,99.90
2023-05-06T19:59:43.721Z,99.90
2023-05-06T20:02:13.813Z,99.90
2023-05-06T20:04:40.639Z,99.90
2023-05-06T20:07:08.001Z,99.90
2023-05-06T20:09:35.424Z,99.90
2023-05-06T20:12:02.727Z,99.90
2023-05-06T20:17:08.221Z,99.90
2023-05-06T20:19:37.839Z,99.90
2023-05-06T20:22:07.087Z,99.90
2023-05-06T20:24:35.041Z,99.90
2023-05-06T20:27:04.035Z,99.90
2023-05-06T20:29:32.720Z,99.90
2023-05-06T20:32:01.960Z,99.90
2023-05-06T20:34:29.189Z,99.90
2023-05-06T20:36:59.565Z,99.90
2023-05-06T20:39:27.557Z,99.90
2023-05-06T20:41:55.700Z,99.90
2023-05-06T20:44:24.941Z,99.90
2023-05-06T20:46:55.113Z,99.90
2023-05-06T20:49:22.798Z,99.90
2023-05-06T20:51:50.898Z,99.90
2023-05-06T20:54:18.694Z,99.90
2023-05-06T20:56:45.749Z,99.90
2023-05-06T20:59:12.499Z,99.90
2023-05-06T21:01:41.197Z,99.90
2023-05-06T21:04:08.601Z,99.90
2023-05-06T21:06:35.543Z,99.90
2023-05-06T21:09:04.020Z,99.90
2023-05-06T21:11:30.848Z,99.90
2023-05-06T21:16:36.925Z,99.90
2023-05-06T21:19:07.642Z,99.90
2023-05-06T21:21:34.439Z,99.90
2023-05-06T21:24:01.855Z,99.90
2023-05-06T21:26:30.849Z,99.90
2023-05-06T21:28:57.632Z,99.90
2023-05-06T21:31:26.046Z,99.90
2023-05-06T21:33:57.023Z,99.90
2023-05-06T21:36:27.420Z,99.90
2023-05-06T21:39:13.328Z,99.90
2023-05-06T21:41:40.675Z,99.90
2023-05-06T21:44:08.160Z,99.90
2023-05-06T21:46:35.289Z,99.90
2023-05-06T21:49:04.389Z,99.90
2023-05-06T21:51:32.887Z,99.90
2023-05-06T21:53:59.951Z,99.90
2023-05-06T21:56:26.926Z,99.90
2023-05-06T21:58:55.667Z,99.90
2023-05-06T22:01:23.116Z,99.90
2023-05-06T22:03:50.202Z,99.90
2023-05-06T22:06:17.225Z,99.90
2023-05-06T22:08:44.117Z,99.90
2023-05-06T22:11:12.044Z,99.90
2023-05-06T22:13:40.471Z,99.90
2023-05-06T22:16:08.280Z,99.90
2023-05-06T22:18:41.293Z,99.90
2023-05-06T22:21:08.838Z,99.90
2023-05-06T22:23:36.052Z,99.90
2023-05-06T22:26:03.265Z,99.90
2023-05-06T22:28:32.071Z,99.90
2023-05-06T22:30:58.870Z,99.90
2023-05-06T22:33:26.854Z,99.90
2023-05-06T22:35:54.230Z,99.90
2023-05-06T22:38:21.273Z,99.90
2023-05-06T22:40:48.028Z,99.90
2023-05-06T22:43:14.796Z,99.90
2023-05-06T22:45:41.668Z,99.90
2023-05-06T22:48:09.145Z,99.90
2023-05-06T22:50:36.694Z,99.90
2023-05-06T22:53:13.611Z,99.90
2023-05-06T22:55:42.108Z,99.90
2023-05-06T22:58:09.364Z,99.90
2023-05-06T23:00:36.608Z,99.90
2023-05-06T23:03:04.940Z,99.90
2023-05-06T23:05:31.678Z,99.90
2023-05-06T23:07:58.416Z,99.90
2023-05-06T23:10:25.594Z,99.90
2023-05-06T23:12:52.407Z,99.90
2023-05-06T23:15:19.701Z,99.90
2023-05-06T23:17:46.594Z,99.90
2023-05-06T23:20:13.888Z,99.90
2023-05-06T23:22:41.195Z,99.90
2023-05-06T23:25:11.369Z,99.90
2023-05-06T23:27:42.344Z,99.90
2023-05-06T23:30:09.773Z,99.90
2023-05-06T23:32:37.270Z,99.90
2023-05-06T23:35:04.916Z,99.90
2023-05-06T23:37:32.526Z,99.90
2023-05-06T23:39:59.353Z,99.90
2023-05-06T23:42:26.333Z,99.90
2023-05-06T23:44:53.605Z,99.90
2023-05-06T23:47:20.462Z,99.90
2023-05-06T23:49:47.198Z,99.90
2023-05-06T23:52:14.009Z,99.90
2023-05-06T23:54:41.073Z,99.90
2023-05-06T23:57:09.131Z,99.90
2023-05-06T23:59:36.256Z,99.90
